sensor_id;sensor_type;location;lat;lon;timestamp;pressure;altitude;pressure_sealevel;temperature;humidity
40117;BME280;25829;50.228;18.936;2023-01-29T00:02:13;99480.06;;;-1.11;65.74
40117;BME280;25829;50.228;18.936;2023-01-29T00:05:14;99481.72;;;-1.10;65.72
40117;BME280;25829;50.228;18.936;2023-01-29T00:08:15;99484.63;;;-1.15;65.51
40117;BME280;25829;50.228;18.936;2023-01-29T00:11:16;99480.38;;;-1.16;65.92
40117;BME280;25829;50.228;18.936;2023-01-29T00:14:18;99478.72;;;-1.17;65.96
40117;BME280;25829;50.228;18.936;2023-01-29T00:17:19;99475.09;;;-1.14;66.32
40117;BME280;25829;50.228;18.936;2023-01-29T00:20:19;99477.56;;;-1.13;66.22
40117;BME280;25829;50.228;18.936;2023-01-29T00:23:21;99490.53;;;-1.13;65.99
40117;BME280;25829;50.228;18.936;2023-01-29T00:26:22;99480.50;;;-1.17;65.66
40117;BME280;25829;50.228;18.936;2023-01-29T00:29:22;99492.41;;;-1.15;66.05
40117;BME280;25829;50.228;18.936;2023-01-29T00:32:23;99502.53;;;-1.12;66.26
40117;BME280;25829;50.228;18.936;2023-01-29T00:35:24;99494.38;;;-1.18;65.59
40117;BME280;25829;50.228;18.936;2023-01-29T00:38:24;99503.28;;;-1.22;65.66
40117;BME280;25829;50.228;18.936;2023-01-29T00:41:27;99498.84;;;-1.20;66.09
40117;BME280;25829;50.228;18.936;2023-01-29T00:44:48;99506.72;;;-1.22;65.87
40117;BME280;25829;50.228;18.936;2023-01-29T00:47:58;99507.63;;;-1.23;65.86
40117;BME280;25829;50.228;18.936;2023-01-29T00:51:01;99505.38;;;-1.27;65.62
40117;BME280;25829;50.228;18.936;2023-01-29T00:54:02;99510.47;;;-1.39;65.64
40117;BME280;25829;50.228;18.936;2023-01-29T00:57:06;99510.16;;;-1.47;65.92
40117;BME280;25829;50.228;18.936;2023-01-29T01:00:09;99508.28;;;-1.45;65.78
40117;BME280;25829;50.228;18.936;2023-01-29T01:03:10;99516.56;;;-1.40;65.94
40117;BME280;25829;50.228;18.936;2023-01-29T01:06:11;99519.16;;;-1.40;65.52
40117;BME280;25829;50.228;18.936;2023-01-29T01:09:12;99526.22;;;-1.42;65.54
40117;BME280;25829;50.228;18.936;2023-01-29T01:12:31;99528.88;;;-1.43;65.54
40117;BME280;25829;50.228;18.936;2023-01-29T01:15:37;99533.44;;;-1.47;65.31
40117;BME280;25829;50.228;18.936;2023-01-29T01:18:38;99532.00;;;-1.51;65.45
40117;BME280;25829;50.228;18.936;2023-01-29T01:21:39;99521.34;;;-1.59;65.27
40117;BME280;25829;50.228;18.936;2023-01-29T01:24:44;99515.66;;;-1.64;64.97
40117;BME280;25829;50.228;18.936;2023-01-29T01:27:45;99509.75;;;-1.66;65.13
40117;BME280;25829;50.228;18.936;2023-01-29T01:30:46;99510.59;;;-1.66;65.02
40117;BME280;25829;50.228;18.936;2023-01-29T01:33:47;99509.66;;;-1.65;64.83
40117;BME280;25829;50.228;18.936;2023-01-29T01:36:48;99508.09;;;-1.67;65.04
40117;BME280;25829;50.228;18.936;2023-01-29T01:39:48;99506.44;;;-1.68;64.64
40117;BME280;25829;50.228;18.936;2023-01-29T01:42:57;99504.16;;;-1.73;64.42
40117;BME280;25829;50.228;18.936;2023-01-29T01:45:58;99518.13;;;-1.75;64.22
40117;BME280;25829;50.228;18.936;2023-01-29T01:49:13;99505.09;;;-1.74;64.60
40117;BME280;25829;50.228;18.936;2023-01-29T01:52:16;99499.00;;;-1.73;64.01
40117;BME280;25829;50.228;18.936;2023-01-29T01:55:22;99496.63;;;-1.76;63.98
40117;BME280;25829;50.228;18.936;2023-01-29T02:01:36;99488.56;;;-1.84;63.85
40117;BME280;25829;50.228;18.936;2023-01-29T02:04:45;99485.13;;;-1.85;63.59
40117;BME280;25829;50.228;18.936;2023-01-29T02:08:06;99470.66;;;-1.87;63.48
40117;BME280;25829;50.228;18.936;2023-01-29T02:11:26;99466.50;;;-1.90;63.43
40117;BME280;25829;50.228;18.936;2023-01-29T02:14:26;99475.22;;;-1.91;62.97
40117;BME280;25829;50.228;18.936;2023-01-29T02:17:27;99486.66;;;-1.95;62.95
40117;BME280;25829;50.228;18.936;2023-01-29T02:20:31;99477.16;;;-1.94;62.91
40117;BME280;25829;50.228;18.936;2023-01-29T02:27:04;99467.66;;;-1.94;62.27
40117;BME280;25829;50.228;18.936;2023-01-29T02:30:17;99464.94;;;-2.05;62.01
40117;BME280;25829;50.228;18.936;2023-01-29T02:36:49;99460.28;;;-2.00;62.82
40117;BME280;25829;50.228;18.936;2023-01-29T02:39:59;99460.72;;;-1.93;62.54
40117;BME280;25829;50.228;18.936;2023-01-29T02:46:27;99454.72;;;-1.94;62.22
40117;BME280;25829;50.228;18.936;2023-01-29T02:49:34;99472.47;;;-2.02;61.46
40117;BME280;25829;50.228;18.936;2023-01-29T02:52:43;99478.72;;;-2.05;61.60
40117;BME280;25829;50.228;18.936;2023-01-29T02:55:56;99478.09;;;-2.08;61.51
40117;BME280;25829;50.228;18.936;2023-01-29T02:59:09;99487.91;;;-2.13;60.92
40117;BME280;25829;50.228;18.936;2023-01-29T03:02:20;99496.03;;;-2.19;61.01
40117;BME280;25829;50.228;18.936;2023-01-29T03:05:30;99498.00;;;-2.23;60.77
40117;BME280;25829;50.228;18.936;2023-01-29T03:35:22;99509.78;;;-2.19;59.19
40117;BME280;25829;50.228;18.936;2023-01-29T03:38:37;99498.75;;;-2.21;59.08
40117;BME280;25829;50.228;18.936;2023-01-29T03:48:35;99500.81;;;-2.13;59.33
40117;BME280;25829;50.228;18.936;2023-01-29T03:52:03;99494.72;;;-2.12;58.66
40117;BME280;25829;50.228;18.936;2023-01-29T03:55:16;99491.81;;;-2.20;59.04
40117;BME280;25829;50.228;18.936;2023-01-29T03:58:47;99479.72;;;-2.20;59.21
40117;BME280;25829;50.228;18.936;2023-01-29T04:01:57;99474.75;;;-2.23;58.78
40117;BME280;25829;50.228;18.936;2023-01-29T04:05:04;99479.00;;;-2.22;59.00
40117;BME280;25829;50.228;18.936;2023-01-29T04:08:29;99479.19;;;-2.25;58.33
40117;BME280;25829;50.228;18.936;2023-01-29T04:11:36;99481.63;;;-2.36;58.08
40117;BME280;25829;50.228;18.936;2023-01-29T04:14:38;99476.34;;;-2.47;58.31
40117;BME280;25829;50.228;18.936;2023-01-29T04:17:42;99472.84;;;-2.46;58.71
40117;BME280;25829;50.228;18.936;2023-01-29T04:20:49;99472.63;;;-2.43;58.85
40117;BME280;25829;50.228;18.936;2023-01-29T04:23:49;99463.78;;;-2.39;58.89
40117;BME280;25829;50.228;18.936;2023-01-29T04:27:11;99454.69;;;-2.32;58.67
40117;BME280;25829;50.228;18.936;2023-01-29T04:30:58;99454.25;;;-2.39;58.53
40117;BME280;25829;50.228;18.936;2023-01-29T04:34:12;99443.09;;;-2.39;58.00
40117;BME280;25829;50.228;18.936;2023-01-29T04:40:49;99423.84;;;-2.48;58.54
40117;BME280;25829;50.228;18.936;2023-01-29T04:44:06;99416.63;;;-2.43;58.57
40117;BME280;25829;50.228;18.936;2023-01-29T04:50:40;99413.75;;;-2.25;59.20
40117;BME280;25829;50.228;18.936;2023-01-29T05:00:25;99399.50;;;-2.18;58.75
40117;BME280;25829;50.228;18.936;2023-01-29T05:03:28;99401.00;;;-2.16;59.00
40117;BME280;25829;50.228;18.936;2023-01-29T05:09:43;99408.28;;;-2.08;59.20
40117;BME280;25829;50.228;18.936;2023-01-29T05:12:48;99416.75;;;-2.06;58.91
40117;BME280;25829;50.228;18.936;2023-01-29T05:16:00;99418.38;;;-2.05;59.08
40117;BME280;25829;50.228;18.936;2023-01-29T05:19:02;99421.72;;;-2.03;59.06
40117;BME280;25829;50.228;18.936;2023-01-29T05:22:04;99425.72;;;-1.99;58.95
40117;BME280;25829;50.228;18.936;2023-01-29T05:25:20;99420.47;;;-1.97;58.99
40117;BME280;25829;50.228;18.936;2023-01-29T05:28:27;99422.31;;;-1.99;59.08
40117;BME280;25829;50.228;18.936;2023-01-29T05:31:28;99427.41;;;-1.98;59.29
40117;BME280;25829;50.228;18.936;2023-01-29T05:34:31;99428.13;;;-1.96;59.14
40117;BME280;25829;50.228;18.936;2023-01-29T05:37:32;99424.50;;;-1.93;59.13
40117;BME280;25829;50.228;18.936;2023-01-29T05:40:33;99418.50;;;-1.94;59.16
40117;BME280;25829;50.228;18.936;2023-01-29T05:43:34;99414.03;;;-1.92;59.00
40117;BME280;25829;50.228;18.936;2023-01-29T05:46:34;99419.22;;;-1.92;59.39
40117;BME280;25829;50.228;18.936;2023-01-29T05:49:35;99413.34;;;-1.94;59.38
40117;BME280;25829;50.228;18.936;2023-01-29T05:52:36;99425.44;;;-1.94;59.47
40117;BME280;25829;50.228;18.936;2023-01-29T05:55:37;99423.56;;;-1.92;59.84
40117;BME280;25829;50.228;18.936;2023-01-29T05:58:37;99425.94;;;-1.89;59.82
40117;BME280;25829;50.228;18.936;2023-01-29T06:01:38;99421.59;;;-1.89;59.72
40117;BME280;25829;50.228;18.936;2023-01-29T06:04:39;99426.69;;;-1.87;59.88
40117;BME280;25829;50.228;18.936;2023-01-29T06:07:39;99425.75;;;-1.86;59.95
40117;BME280;25829;50.228;18.936;2023-01-29T06:10:44;99436.91;;;-1.86;59.64
40117;BME280;25829;50.228;18.936;2023-01-29T06:13:45;99431.84;;;-1.87;60.00
40117;BME280;25829;50.228;18.936;2023-01-29T06:16:46;99436.41;;;-1.91;59.59
40117;BME280;25829;50.228;18.936;2023-01-29T06:19:46;99431.31;;;-1.92;59.84
40117;BME280;25829;50.228;18.936;2023-01-29T06:22:47;99438.47;;;-1.96;59.61
40117;BME280;25829;50.228;18.936;2023-01-29T06:25:48;99436.91;;;-1.98;59.66
40117;BME280;25829;50.228;18.936;2023-01-29T06:28:49;99437.63;;;-1.96;59.79
40117;BME280;25829;50.228;18.936;2023-01-29T06:31:50;99447.78;;;-1.93;59.83
40117;BME280;25829;50.228;18.936;2023-01-29T06:34:51;99448.47;;;-1.91;60.08
40117;BME280;25829;50.228;18.936;2023-01-29T06:37:52;99434.72;;;-1.92;60.16
40117;BME280;25829;50.228;18.936;2023-01-29T06:40:54;99443.22;;;-1.90;60.04
40117;BME280;25829;50.228;18.936;2023-01-29T06:43:55;99437.94;;;-1.88;60.10
40117;BME280;25829;50.228;18.936;2023-01-29T06:46:58;99445.41;;;-1.84;59.97
40117;BME280;25829;50.228;18.936;2023-01-29T06:49:59;99435.75;;;-1.82;59.88
40117;BME280;25829;50.228;18.936;2023-01-29T06:53:00;99434.72;;;-1.79;60.00
40117;BME280;25829;50.228;18.936;2023-01-29T06:56:01;99438.97;;;-1.78;59.67
40117;BME280;25829;50.228;18.936;2023-01-29T06:59:02;99444.13;;;-1.78;59.72
40117;BME280;25829;50.228;18.936;2023-01-29T07:02:06;99446.03;;;-1.80;59.97
40117;BME280;25829;50.228;18.936;2023-01-29T07:05:17;99447.25;;;-1.86;60.07
40117;BME280;25829;50.228;18.936;2023-01-29T07:08:18;99447.16;;;-1.97;61.18
40117;BME280;25829;50.228;18.936;2023-01-29T07:12:06;99452.13;;;-2.07;62.12
40117;BME280;25829;50.228;18.936;2023-01-29T07:15:10;99457.88;;;-2.16;62.15
40117;BME280;25829;50.228;18.936;2023-01-29T07:18:51;99449.50;;;-2.19;62.94
40117;BME280;25829;50.228;18.936;2023-01-29T07:21:52;99453.97;;;-2.21;63.61
40117;BME280;25829;50.228;18.936;2023-01-29T07:24:52;99460.91;;;-2.22;64.20
40117;BME280;25829;50.228;18.936;2023-01-29T07:27:53;99466.16;;;-2.23;64.46
40117;BME280;25829;50.228;18.936;2023-01-29T07:31:04;99467.72;;;-2.21;64.92
40117;BME280;25829;50.228;18.936;2023-01-29T07:34:05;99463.25;;;-2.19;64.90
40117;BME280;25829;50.228;18.936;2023-01-29T07:37:12;99463.56;;;-2.23;65.80
40117;BME280;25829;50.228;18.936;2023-01-29T07:40:38;99465.72;;;-2.30;65.59
40117;BME280;25829;50.228;18.936;2023-01-29T07:43:39;99479.91;;;-2.36;66.07
40117;BME280;25829;50.228;18.936;2023-01-29T07:46:43;99474.53;;;-2.33;65.88
40117;BME280;25829;50.228;18.936;2023-01-29T07:49:44;99480.09;;;-2.26;65.97
40117;BME280;25829;50.228;18.936;2023-01-29T07:52:44;99478.25;;;-2.24;65.75
40117;BME280;25829;50.228;18.936;2023-01-29T07:55:45;99477.00;;;-2.31;66.20
40117;BME280;25829;50.228;18.936;2023-01-29T07:58:56;99480.00;;;-2.37;66.17
40117;BME280;25829;50.228;18.936;2023-01-29T08:01:57;99491.78;;;-2.33;66.30
40117;BME280;25829;50.228;18.936;2023-01-29T08:04:58;99495.22;;;-2.33;66.39
40117;BME280;25829;50.228;18.936;2023-01-29T08:07:58;99493.53;;;-2.34;66.25
40117;BME280;25829;50.228;18.936;2023-01-29T08:11:00;99501.84;;;-2.29;66.35
40117;BME280;25829;50.228;18.936;2023-01-29T08:17:25;99506.53;;;-2.08;66.37
40117;BME280;25829;50.228;18.936;2023-01-29T08:24:09;99503.72;;;-2.05;65.95
40117;BME280;25829;50.228;18.936;2023-01-29T08:27:16;99511.06;;;-1.99;66.05
40117;BME280;25829;50.228;18.936;2023-01-29T08:30:18;99508.50;;;-1.99;65.95
40117;BME280;25829;50.228;18.936;2023-01-29T08:37:02;99510.16;;;-1.98;65.70
40117;BME280;25829;50.228;18.936;2023-01-29T08:40:04;99512.13;;;-2.01;65.43
40117;BME280;25829;50.228;18.936;2023-01-29T08:47:18;99509.72;;;-2.17;65.51
40117;BME280;25829;50.228;18.936;2023-01-29T08:50:21;99515.94;;;-2.07;65.71
40117;BME280;25829;50.228;18.936;2023-01-29T08:53:32;99514.28;;;-1.95;65.45
40117;BME280;25829;50.228;18.936;2023-01-29T08:56:39;99506.00;;;-1.88;65.66
40117;BME280;25829;50.228;18.936;2023-01-29T09:00:08;99506.13;;;-1.76;65.01
40117;BME280;25829;50.228;18.936;2023-01-29T09:03:17;99505.81;;;-1.72;65.16
40117;BME280;25829;50.228;18.936;2023-01-29T09:06:18;99503.31;;;-1.61;65.69
40117;BME280;25829;50.228;18.936;2023-01-29T09:09:31;99487.50;;;-1.56;65.10
40117;BME280;25829;50.228;18.936;2023-01-29T09:12:38;99484.47;;;-1.50;65.01
40117;BME280;25829;50.228;18.936;2023-01-29T09:15:39;99471.53;;;-1.50;64.77
40117;BME280;25829;50.228;18.936;2023-01-29T09:21:42;99468.31;;;-1.41;64.64
40117;BME280;25829;50.228;18.936;2023-01-29T09:24:58;99467.78;;;-1.33;64.59
40117;BME280;25829;50.228;18.936;2023-01-29T09:31:41;99475.59;;;-1.46;63.21
40117;BME280;25829;50.228;18.936;2023-01-29T09:35:14;99475.34;;;-1.43;62.60
40117;BME280;25829;50.228;18.936;2023-01-29T09:38:24;99477.03;;;-1.42;62.38
40117;BME280;25829;50.228;18.936;2023-01-29T09:41:52;99491.19;;;-1.35;62.44
40117;BME280;25829;50.228;18.936;2023-01-29T09:45:23;99495.63;;;-1.37;62.23
40117;BME280;25829;50.228;18.936;2023-01-29T09:52:45;99475.16;;;-1.40;60.71
40117;BME280;25829;50.228;18.936;2023-01-29T09:56:12;99476.63;;;-1.48;60.18
40117;BME280;25829;50.228;18.936;2023-01-29T09:59:23;99475.69;;;-1.60;60.40
40117;BME280;25829;50.228;18.936;2023-01-29T10:09:34;99440.66;;;-1.40;60.45
40117;BME280;25829;50.228;18.936;2023-01-29T10:13:19;99432.81;;;-1.39;59.80
40117;BME280;25829;50.228;18.936;2023-01-29T10:16:35;99431.25;;;-1.41;59.63
40117;BME280;25829;50.228;18.936;2023-01-29T10:26:22;99409.78;;;-1.31;59.55
40117;BME280;25829;50.228;18.936;2023-01-29T10:29:26;99400.25;;;-1.30;59.50
40117;BME280;25829;50.228;18.936;2023-01-29T10:32:29;99397.19;;;-1.35;59.09
40117;BME280;25829;50.228;18.936;2023-01-29T10:35:56;99391.41;;;-1.39;59.03
40117;BME280;25829;50.228;18.936;2023-01-29T10:38:59;99386.09;;;-1.37;58.87
40117;BME280;25829;50.228;18.936;2023-01-29T10:42:30;99377.19;;;-1.33;58.81
40117;BME280;25829;50.228;18.936;2023-01-29T11:00:20;99335.59;;;-1.19;57.35
40117;BME280;25829;50.228;18.936;2023-01-29T11:03:43;99334.44;;;-1.15;57.33
40117;BME280;25829;50.228;18.936;2023-01-29T11:10:38;99323.72;;;-1.21;56.64
40117;BME280;25829;50.228;18.936;2023-01-29T11:21:12;99297.81;;;-0.86;57.00
40117;BME280;25829;50.228;18.936;2023-01-29T11:31:36;99273.78;;;-0.77;55.99
40117;BME280;25829;50.228;18.936;2023-01-29T11:49:02;99281.41;;;-0.98;56.21
40117;BME280;25829;50.228;18.936;2023-01-29T11:52:06;99276.81;;;-0.94;57.30
40117;BME280;25829;50.228;18.936;2023-01-29T11:59:42;99278.13;;;-0.89;56.78
40117;BME280;25829;50.228;18.936;2023-01-29T12:03:12;99290.13;;;-0.88;57.13
40117;BME280;25829;50.228;18.936;2023-01-29T12:09:59;99285.91;;;-0.77;57.17
40117;BME280;25829;50.228;18.936;2023-01-29T12:13:19;99280.78;;;-0.66;56.73
40117;BME280;25829;50.228;18.936;2023-01-29T12:20:05;99266.50;;;-0.61;56.32
40117;BME280;25829;50.228;18.936;2023-01-29T12:28:26;99268.66;;;-0.66;55.12
40117;BME280;25829;50.228;18.936;2023-01-29T12:48:00;99236.81;;;-0.56;55.07
40117;BME280;25829;50.228;18.936;2023-01-29T12:51:24;99236.94;;;-0.58;54.58
40117;BME280;25829;50.228;18.936;2023-01-29T12:58:42;99220.34;;;-0.55;54.68
40117;BME280;25829;50.228;18.936;2023-01-29T13:01:57;99219.75;;;-0.48;54.59
40117;BME280;25829;50.228;18.936;2023-01-29T13:08:52;99220.94;;;-0.41;54.45
40117;BME280;25829;50.228;18.936;2023-01-29T13:12:16;99215.38;;;-0.36;54.58
40117;BME280;25829;50.228;18.936;2023-01-29T13:15:37;99210.31;;;-0.26;55.07
40117;BME280;25829;50.228;18.936;2023-01-29T13:18:48;99204.88;;;-0.23;54.82
40117;BME280;25829;50.228;18.936;2023-01-29T13:22:46;99200.50;;;-0.23;54.07
40117;BME280;25829;50.228;18.936;2023-01-29T13:25:54;99203.81;;;-0.21;54.20
40117;BME280;25829;50.228;18.936;2023-01-29T13:29:01;99205.59;;;-0.21;53.76
40117;BME280;25829;50.228;18.936;2023-01-29T13:32:05;99192.94;;;-0.15;54.27
40117;BME280;25829;50.228;18.936;2023-01-29T13:35:20;99191.66;;;-0.09;54.64
40117;BME280;25829;50.228;18.936;2023-01-29T13:42:23;99196.16;;;-0.11;53.86
40117;BME280;25829;50.228;18.936;2023-01-29T13:48:49;99193.94;;;-0.27;54.51
40117;BME280;25829;50.228;18.936;2023-01-29T13:51:51;99171.41;;;-0.26;54.42
40117;BME280;25829;50.228;18.936;2023-01-29T13:55:02;99163.75;;;-0.28;54.44
40117;BME280;25829;50.228;18.936;2023-01-29T14:01:14;99164.00;;;-0.31;54.75
40117;BME280;25829;50.228;18.936;2023-01-29T14:07:47;99168.25;;;-0.30;55.24
40117;BME280;25829;50.228;18.936;2023-01-29T14:14:49;99167.88;;;-0.25;55.70
40117;BME280;25829;50.228;18.936;2023-01-29T14:25:20;99160.25;;;-0.38;55.26
40117;BME280;25829;50.228;18.936;2023-01-29T14:28:27;99153.75;;;-0.44;54.99
40117;BME280;25829;50.228;18.936;2023-01-29T14:46:52;99163.47;;;-0.79;55.26
40117;BME280;25829;50.228;18.936;2023-01-29T14:50:00;99166.38;;;-0.84;55.61
40117;BME280;25829;50.228;18.936;2023-01-29T14:56:36;99169.25;;;-0.87;56.25
40117;BME280;25829;50.228;18.936;2023-01-29T15:00:11;99153.09;;;-0.91;55.79
40117;BME280;25829;50.228;18.936;2023-01-29T15:03:21;99164.84;;;-0.98;55.87
40117;BME280;25829;50.228;18.936;2023-01-29T15:06:58;99158.16;;;-1.00;56.18
40117;BME280;25829;50.228;18.936;2023-01-29T15:13:29;99177.47;;;-1.04;56.58
40117;BME280;25829;50.228;18.936;2023-01-29T15:23:46;99145.75;;;-1.08;56.72
40117;BME280;25829;50.228;18.936;2023-01-29T15:26:48;99141.53;;;-1.09;56.89
40117;BME280;25829;50.228;18.936;2023-01-29T15:30:17;99151.19;;;-1.11;57.24
40117;BME280;25829;50.228;18.936;2023-01-29T15:33:20;99150.47;;;-1.13;57.04
40117;BME280;25829;50.228;18.936;2023-01-29T15:39:27;99159.28;;;-1.16;57.32
40117;BME280;25829;50.228;18.936;2023-01-29T15:42:42;99156.59;;;-1.14;57.27
40117;BME280;25829;50.228;18.936;2023-01-29T15:45:46;99140.13;;;-1.13;57.35
40117;BME280;25829;50.228;18.936;2023-01-29T15:48:48;99143.44;;;-1.11;57.95
40117;BME280;25829;50.228;18.936;2023-01-29T15:51:54;99131.06;;;-1.08;57.76
40117;BME280;25829;50.228;18.936;2023-01-29T15:55:02;99122.34;;;-1.07;57.38
40117;BME280;25829;50.228;18.936;2023-01-29T15:58:28;99114.22;;;-1.13;57.49
40117;BME280;25829;50.228;18.936;2023-01-29T16:01:33;99111.66;;;-1.13;57.86
40117;BME280;25829;50.228;18.936;2023-01-29T16:04:40;99117.78;;;-1.14;57.85
40117;BME280;25829;50.228;18.936;2023-01-29T16:07:41;99128.81;;;-1.12;57.71
40117;BME280;25829;50.228;18.936;2023-01-29T16:10:42;99124.47;;;-1.12;57.90
40117;BME280;25829;50.228;18.936;2023-01-29T16:16:51;99116.59;;;-1.10;58.04
40117;BME280;25829;50.228;18.936;2023-01-29T16:20:18;99113.50;;;-1.15;57.58
40117;BME280;25829;50.228;18.936;2023-01-29T16:23:35;99104.69;;;-1.24;57.97
40117;BME280;25829;50.228;18.936;2023-01-29T16:27:08;99106.91;;;-1.31;57.99
40117;BME280;25829;50.228;18.936;2023-01-29T16:30:15;99101.97;;;-1.34;58.07
40117;BME280;25829;50.228;18.936;2023-01-29T16:33:16;99105.50;;;-1.35;57.96
40117;BME280;25829;50.228;18.936;2023-01-29T16:36:21;99106.78;;;-1.40;57.79
40117;BME280;25829;50.228;18.936;2023-01-29T16:39:34;99105.16;;;-1.41;58.18
40117;BME280;25829;50.228;18.936;2023-01-29T16:42:35;99109.72;;;-1.45;58.65
40117;BME280;25829;50.228;18.936;2023-01-29T16:45:37;99117.13;;;-1.40;58.93
40117;BME280;25829;50.228;18.936;2023-01-29T16:48:37;99107.59;;;-1.40;58.41
40117;BME280;25829;50.228;18.936;2023-01-29T16:51:38;99102.66;;;-1.43;58.28
40117;BME280;25829;50.228;18.936;2023-01-29T16:54:41;99098.78;;;-1.48;57.91
40117;BME280;25829;50.228;18.936;2023-01-29T16:57:43;99108.63;;;-1.53;58.50
40117;BME280;25829;50.228;18.936;2023-01-29T17:00:54;99112.06;;;-1.53;58.27
40117;BME280;25829;50.228;18.936;2023-01-29T17:04:28;99109.22;;;-1.50;58.61
40117;BME280;25829;50.228;18.936;2023-01-29T17:07:29;99108.09;;;-1.46;58.65
40117;BME280;25829;50.228;18.936;2023-01-29T17:10:31;99096.66;;;-1.43;58.56
40117;BME280;25829;50.228;18.936;2023-01-29T17:13:45;99109.59;;;-1.43;58.23
40117;BME280;25829;50.228;18.936;2023-01-29T17:19:54;99102.56;;;-1.41;58.92
40117;BME280;25829;50.228;18.936;2023-01-29T17:22:57;99098.06;;;-1.39;58.05
40117;BME280;25829;50.228;18.936;2023-01-29T17:25:58;99104.19;;;-1.40;58.35
40117;BME280;25829;50.228;18.936;2023-01-29T17:28:59;99100.56;;;-1.38;58.29
40117;BME280;25829;50.228;18.936;2023-01-29T17:32:03;99098.06;;;-1.39;58.34
40117;BME280;25829;50.228;18.936;2023-01-29T17:38:20;99091.72;;;-1.46;58.22
40117;BME280;25829;50.228;18.936;2023-01-29T17:41:28;99081.25;;;-1.45;58.25
40117;BME280;25829;50.228;18.936;2023-01-29T17:44:29;99089.97;;;-1.46;58.30
40117;BME280;25829;50.228;18.936;2023-01-29T17:47:30;99077.34;;;-1.50;57.77
40117;BME280;25829;50.228;18.936;2023-01-29T17:50:33;99068.31;;;-1.56;58.37
40117;BME280;25829;50.228;18.936;2023-01-29T17:53:37;99065.94;;;-1.59;58.25
40117;BME280;25829;50.228;18.936;2023-01-29T17:59:48;99071.22;;;-1.61;58.54
40117;BME280;25829;50.228;18.936;2023-01-29T18:39:56;99052.66;;;-1.66;58.59
40117;BME280;25829;50.228;18.936;2023-01-29T18:47:53;99043.47;;;-1.70;59.41
40117;BME280;25829;50.228;18.936;2023-01-29T18:50:54;99046.16;;;-1.71;59.52
40117;BME280;25829;50.228;18.936;2023-01-29T18:53:55;99047.69;;;-1.69;59.57
40117;BME280;25829;50.228;18.936;2023-01-29T18:57:11;99038.75;;;-1.65;59.72
40117;BME280;25829;50.228;18.936;2023-01-29T19:04:40;99037.72;;;-1.51;60.04
40117;BME280;25829;50.228;18.936;2023-01-29T19:07:50;99034.09;;;-1.48;60.03
40117;BME280;25829;50.228;18.936;2023-01-29T19:10:51;99032.69;;;-1.52;60.35
40117;BME280;25829;50.228;18.936;2023-01-29T19:13:52;99017.16;;;-1.52;60.44
40117;BME280;25829;50.228;18.936;2023-01-29T19:16:57;99019.97;;;-1.56;60.39
40117;BME280;25829;50.228;18.936;2023-01-29T19:23:39;99019.16;;;-1.56;60.60
40117;BME280;25829;50.228;18.936;2023-01-29T19:26:43;99009.84;;;-1.59;60.53
40117;BME280;25829;50.228;18.936;2023-01-29T19:29:44;99004.69;;;-1.59;60.41
40117;BME280;25829;50.228;18.936;2023-01-29T19:32:44;99009.72;;;-1.57;60.93
40117;BME280;25829;50.228;18.936;2023-01-29T19:35:48;99012.91;;;-1.53;61.13
40117;BME280;25829;50.228;18.936;2023-01-29T19:38:49;99014.34;;;-1.49;60.48
40117;BME280;25829;50.228;18.936;2023-01-29T19:41:50;99008.56;;;-1.53;60.79
40117;BME280;25829;50.228;18.936;2023-01-29T19:44:50;99008.44;;;-1.51;60.72
40117;BME280;25829;50.228;18.936;2023-01-29T19:47:52;99015.38;;;-1.52;60.87
40117;BME280;25829;50.228;18.936;2023-01-29T19:50:55;99021.50;;;-1.53;60.87
40117;BME280;25829;50.228;18.936;2023-01-29T19:53:56;99009.41;;;-1.52;60.76
40117;BME280;25829;50.228;18.936;2023-01-29T19:56:57;99000.69;;;-1.51;61.04
40117;BME280;25829;50.228;18.936;2023-01-29T19:59:59;98999.03;;;-1.52;60.70
40117;BME280;25829;50.228;18.936;2023-01-29T20:03:00;98993.28;;;-1.56;60.29
40117;BME280;25829;50.228;18.936;2023-01-29T20:06:04;98991.03;;;-1.61;60.92
40117;BME280;25829;50.228;18.936;2023-01-29T20:09:05;98991.16;;;-1.62;61.03
40117;BME280;25829;50.228;18.936;2023-01-29T20:12:06;99000.44;;;-1.60;61.04
40117;BME280;25829;50.228;18.936;2023-01-29T20:15:08;98985.75;;;-1.59;61.03
40117;BME280;25829;50.228;18.936;2023-01-29T20:18:13;98987.50;;;-1.60;60.98
40117;BME280;25829;50.228;18.936;2023-01-29T20:21:16;98995.16;;;-1.58;61.28
40117;BME280;25829;50.228;18.936;2023-01-29T20:24:19;98993.03;;;-1.53;61.07
40117;BME280;25829;50.228;18.936;2023-01-29T20:27:23;98996.44;;;-1.52;60.75
40117;BME280;25829;50.228;18.936;2023-01-29T20:30:24;98987.88;;;-1.53;60.85
40117;BME280;25829;50.228;18.936;2023-01-29T20:33:25;98991.38;;;-1.54;60.91
40117;BME280;25829;50.228;18.936;2023-01-29T20:36:26;98992.09;;;-1.52;61.17
40117;BME280;25829;50.228;18.936;2023-01-29T20:39:27;98986.56;;;-1.47;61.14
40117;BME280;25829;50.228;18.936;2023-01-29T20:42:28;98983.03;;;-1.46;60.61
40117;BME280;25829;50.228;18.936;2023-01-29T20:45:29;98982.34;;;-1.48;60.75
40117;BME280;25829;50.228;18.936;2023-01-29T20:48:32;98979.75;;;-1.48;60.67
40117;BME280;25829;50.228;18.936;2023-01-29T20:51:33;98970.09;;;-1.46;60.92
40117;BME280;25829;50.228;18.936;2023-01-29T20:54:37;98971.16;;;-1.49;61.10
40117;BME280;25829;50.228;18.936;2023-01-29T20:57:38;98968.00;;;-1.52;60.81
40117;BME280;25829;50.228;18.936;2023-01-29T21:00:39;98963.88;;;-1.55;60.46
40117;BME280;25829;50.228;18.936;2023-01-29T21:03:41;98957.97;;;-1.57;60.54
40117;BME280;25829;50.228;18.936;2023-01-29T21:06:41;98950.72;;;-1.63;60.97
40117;BME280;25829;50.228;18.936;2023-01-29T21:09:42;98949.84;;;-1.64;61.29
40117;BME280;25829;50.228;18.936;2023-01-29T21:12:43;98943.03;;;-1.65;60.96
40117;BME280;25829;50.228;18.936;2023-01-29T21:15:44;98923.31;;;-1.66;60.77
40117;BME280;25829;50.228;18.936;2023-01-29T21:18:45;98923.91;;;-1.73;60.82
40117;BME280;25829;50.228;18.936;2023-01-29T21:21:45;98919.06;;;-1.78;60.98
40117;BME280;25829;50.228;18.936;2023-01-29T21:24:46;98916.97;;;-1.84;60.96
40117;BME280;25829;50.228;18.936;2023-01-29T21:27:47;98912.72;;;-1.85;61.47
40117;BME280;25829;50.228;18.936;2023-01-29T21:30:48;98912.72;;;-1.85;61.55